Time;durP1;ratioP1;P1;durP2;ratioP2;P2;SDS_P1;SDS_P2;PMS_P1;PMS_P2;Temp;Humidity;BMP_temperature;BMP_pressure;BME280_temperature;BME280_humidity;BME280_pressure;Samples;Min_cycle;Max_cycle;Signal;HPM_P1;HPM_P2
2022/02/27 00:00:10;;;;;;;9.43;6.13;;;;;;;;;;5074793;28;20071;-64
2022/02/27 00:02:36;;;;;;;8.57;6.50;;;;;;;;;;5075107;28;20039;-60
2022/02/27 00:05:03;;;;;;;11.73;7.35;;;;;;;;;;5075191;28;20025;-74
2022/02/27 00:07:29;;;;;;;15.30;9.38;;;;;;;;;;5074233;28;20131;-71
2022/02/27 00:09:55;;;;;;;14.00;8.88;;;;;;;;;;5074675;28;20020;-68
2022/02/27 00:12:21;;;;;;;15.68;9.45;;;;;;;;;;5073383;28;20089;-70
2022/02/27 00:14:47;;;;;;;15.20;10.13;;;;;;;;;;5074860;28;20024;-67
2022/02/27 00:17:13;;;;;;;35.70;22.23;;;;;;;;;;5075006;28;20028;-65
2022/02/27 00:19:40;;;;;;;38.08;21.13;;;;;;;;;;5074617;28;20032;-59
2022/02/27 00:22:06;;;;;;;15.13;9.30;;;;;;;;;;5075255;28;20024;-62
2022/02/27 00:24:32;;;;;;;23.20;14.25;;;;;;;;;;5074666;28;20573;-62
2022/02/27 00:26:58;;;;;;;30.38;18.45;;;;;;;;;;5074349;28;20035;-64
2022/02/27 00:29:24;;;;;;;12.02;8.00;;;;;;;;;;5074964;28;20016;-60
2022/02/27 00:31:50;;;;;;;15.23;10.73;;;;;;;;;;5056352;28;21147;-62
2022/02/27 00:34:16;;;;;;;19.30;12.85;;;;;;;;;;5072085;28;20485;-66
2022/02/27 00:36:44;;;;;;;17.33;10.38;;;;;;;;;;5074613;28;20029;-65
2022/02/27 00:39:10;;;;;;;20.17;13.07;;;;;;;;;;5074799;28;20025;-66
2022/02/27 00:41:38;;;;;;;39.63;26.17;;;;;;;;;;5073276;28;20043;-56
2022/02/27 00:44:04;;;;;;;35.45;22.63;;;;;;;;;;5074353;28;20036;-64
2022/02/27 00:46:30;;;;;;;37.17;20.77;;;;;;;;;;5074471;28;20021;-63
2022/02/27 00:48:57;;;;;;;27.63;15.32;;;;;;;;;;5074235;28;20096;-62
2022/02/27 00:51:23;;;;;;;21.83;13.40;;;;;;;;;;5074635;28;20020;-61
2022/02/27 00:53:49;;;;;;;27.92;17.33;;;;;;;;;;5074263;28;20039;-63
2022/02/27 00:56:17;;;;;;;14.07;9.75;;;;;;;;;;5074126;28;20025;-62
2022/02/27 00:58:50;;;;;;;14.27;10.20;;;;;;;;;;5074091;28;20480;-66
2022/02/27 01:01:18;;;;;;;24.75;16.63;;;;;;;;;;5073856;28;20546;-58
2022/02/27 01:03:44;;;;;;;29.88;18.00;;;;;;;;;;5073942;28;20040;-66
2022/02/27 01:06:11;;;;;;;30.23;19.13;;;;;;;;;;5074035;28;20103;-63
2022/02/27 01:08:37;;;;;;;23.17;15.18;;;;;;;;;;5073017;28;20039;-62
2022/02/27 01:11:03;;;;;;;41.35;26.00;;;;;;;;;;5070845;28;20029;-52
2022/02/27 01:13:29;;;;;;;30.10;19.52;;;;;;;;;;5066901;28;20032;-65
2022/02/27 01:15:55;;;;;;;27.75;17.95;;;;;;;;;;5070123;28;20059;-64
2022/02/27 01:18:21;;;;;;;17.02;11.50;;;;;;;;;;5072235;28;20033;-45
2022/02/27 01:20:47;;;;;;;18.17;13.35;;;;;;;;;;5073378;28;20021;-48
2022/02/27 01:23:13;;;;;;;44.55;28.77;;;;;;;;;;5073379;28;20035;-45
2022/02/27 01:25:39;;;;;;;44.70;28.35;;;;;;;;;;5073267;28;20436;-47
2022/02/27 01:28:06;;;;;;;18.80;13.77;;;;;;;;;;5073432;28;20369;-53
2022/02/27 01:30:32;;;;;;;31.33;20.83;;;;;;;;;;5073322;28;20055;-46
2022/02/27 01:32:59;;;;;;;28.88;19.35;;;;;;;;;;5073162;28;20039;-52
2022/02/27 01:35:28;;;;;;;19.92;13.73;;;;;;;;;;5073158;28;20345;-47
2022/02/27 01:37:54;;;;;;;14.10;10.90;;;;;;;;;;5073094;28;20021;-55
2022/02/27 01:40:20;;;;;;;25.05;17.17;;;;;;;;;;5072885;28;20017;-53
2022/02/27 01:42:46;;;;;;;30.25;19.65;;;;;;;;;;5072933;28;20472;-54
2022/02/27 01:45:12;;;;;;;22.73;16.15;;;;;;;;;;5073194;28;20111;-53
2022/02/27 01:47:38;;;;;;;18.17;12.57;;;;;;;;;;5072773;28;20568;-56
2022/02/27 01:50:05;;;;;;;18.25;14.23;;;;;;;;;;5072887;28;20476;-56
2022/02/27 01:52:31;;;;;;;24.75;16.63;;;;;;;;;;5072950;28;20036;-58
2022/02/27 01:54:58;;;;;;;23.35;16.27;;;;;;;;;;5073429;28;20020;-58
2022/02/27 01:57:24;;;;;;;19.27;13.68;;;;;;;;;;5073323;28;20081;-58
2022/02/27 01:59:51;;;;;;;14.85;10.88;;;;;;;;;;5073071;28;20032;-55
2022/02/27 02:02:17;;;;;;;17.10;11.75;;;;;;;;;;5073223;28;20063;-57
2022/02/27 02:04:44;;;;;;;14.57;10.93;;;;;;;;;;5073172;28;20029;-57
2022/02/27 02:07:12;;;;;;;13.82;10.77;;;;;;;;;;5073342;28;20021;-57
2022/02/27 02:09:38;;;;;;;16.00;11.70;;;;;;;;;;5073089;28;20025;-55
2022/02/27 02:12:05;;;;;;;22.30;14.20;;;;;;;;;;5073083;28;20035;-58
2022/02/27 02:14:31;;;;;;;18.05;12.45;;;;;;;;;;5073331;28;20055;-57
2022/02/27 02:16:57;;;;;;;11.25;8.80;;;;;;;;;;5072909;28;20017;-56
2022/02/27 02:19:24;;;;;;;13.40;9.80;;;;;;;;;;5073102;28;20112;-57
2022/02/27 02:21:52;;;;;;;17.88;12.48;;;;;;;;;;5072911;28;20067;-56
2022/02/27 02:24:18;;;;;;;13.65;9.93;;;;;;;;;;5072870;28;20025;-57
2022/02/27 02:26:44;;;;;;;15.73;10.90;;;;;;;;;;5072861;28;20028;-56
2022/02/27 02:29:12;;;;;;;14.60;10.95;;;;;;;;;;5072645;28;20040;-56
2022/02/27 02:31:39;;;;;;;11.48;9.32;;;;;;;;;;5076158;28;20032;-55
2022/02/27 02:34:05;;;;;;;12.05;9.02;;;;;;;;;;5077085;28;20093;-56
2022/02/27 02:36:31;;;;;;;11.27;9.43;;;;;;;;;;5076861;28;20017;-57
2022/02/27 02:39:01;;;;;;;15.05;10.25;;;;;;;;;;5076900;28;20154;-56
2022/02/27 02:41:27;;;;;;;13.63;10.68;;;;;;;;;;5076761;28;20017;-56
2022/02/27 02:43:53;;;;;;;20.73;15.32;;;;;;;;;;5076796;28;20159;-55
2022/02/27 02:46:19;;;;;;;14.88;10.80;;;;;;;;;;5076889;28;20021;-56
2022/02/27 02:48:45;;;;;;;13.70;10.45;;;;;;;;;;5076753;28;20035;-53
2022/02/27 02:51:11;;;;;;;13.55;10.02;;;;;;;;;;5076848;28;20679;-56
2022/02/27 02:53:38;;;;;;;15.75;12.05;;;;;;;;;;5076802;28;20033;-55
2022/02/27 02:56:07;;;;;;;24.35;15.38;;;;;;;;;;5076487;28;20027;-57
2022/02/27 02:58:35;;;;;;;18.33;12.10;;;;;;;;;;5076750;28;20097;-57
2022/02/27 03:01:03;;;;;;;15.63;10.50;;;;;;;;;;5076193;28;20044;-56
2022/02/27 03:03:29;;;;;;;16.80;12.52;;;;;;;;;;5076517;28;20021;-57
2022/02/27 03:05:58;;;;;;;16.50;11.80;;;;;;;;;;5076541;28;20032;-58
2022/02/27 03:08:24;;;;;;;14.80;10.68;;;;;;;;;;5076561;28;20036;-56
2022/02/27 03:10:50;;;;;;;18.50;12.70;;;;;;;;;;5076312;28;20108;-59
2022/02/27 03:13:16;;;;;;;15.20;11.40;;;;;;;;;;5076497;28;20107;-57
2022/02/27 03:15:45;;;;;;;13.55;10.40;;;;;;;;;;5076541;28;20099;-57
2022/02/27 03:18:11;;;;;;;14.02;10.35;;;;;;;;;;5076146;28;20028;-57
2022/02/27 03:20:37;;;;;;;16.02;11.55;;;;;;;;;;5076139;28;20078;-58
2022/02/27 03:23:03;;;;;;;16.80;12.20;;;;;;;;;;5076073;28;20029;-57
2022/02/27 03:25:29;;;;;;;21.13;11.65;;;;;;;;;;5075921;28;20376;-57
2022/02/27 03:27:55;;;;;;;17.02;12.98;;;;;;;;;;5076103;28;20044;-58
2022/02/27 03:30:21;;;;;;;15.65;11.93;;;;;;;;;;5075735;28;20060;-59
2022/02/27 03:32:47;;;;;;;14.98;11.55;;;;;;;;;;5076063;28;20036;-58
2022/02/27 03:35:14;;;;;;;19.60;12.35;;;;;;;;;;5075993;28;20020;-59
2022/02/27 03:37:40;;;;;;;15.95;11.88;;;;;;;;;;5075822;28;20055;-56
2022/02/27 03:40:07;;;;;;;17.83;13.43;;;;;;;;;;5075654;28;20028;-57
2022/02/27 03:42:33;;;;;;;17.30;12.10;;;;;;;;;;5074462;28;20519;-57
2022/02/27 03:44:59;;;;;;;15.13;11.38;;;;;;;;;;5075696;28;20016;-58
2022/02/27 03:47:25;;;;;;;14.23;11.10;;;;;;;;;;5056824;28;20631;-55
2022/02/27 03:49:51;;;;;;;13.80;10.95;;;;;;;;;;5075671;28;20052;-57
2022/02/27 03:52:17;;;;;;;15.95;10.30;;;;;;;;;;5075595;28;20025;-57
2022/02/27 03:54:43;;;;;;;17.17;12.52;;;;;;;;;;5075457;28;20050;-58
2022/02/27 03:57:09;;;;;;;13.20;10.48;;;;;;;;;;5075305;28;20381;-58
2022/02/27 03:59:35;;;;;;;20.13;13.63;;;;;;;;;;5075544;28;20054;-57
2022/02/27 04:02:04;;;;;;;15.63;11.38;;;;;;;;;;5075158;28;20514;-57
2022/02/27 04:04:30;;;;;;;16.05;11.93;;;;;;;;;;5075387;28;20017;-57
2022/02/27 04:06:56;;;;;;;16.92;11.45;;;;;;;;;;5075236;28;20027;-58
2022/02/27 04:09:22;;;;;;;15.15;11.10;;;;;;;;;;5075191;28;20073;-58
2022/02/27 04:11:48;;;;;;;15.50;10.82;;;;;;;;;;5075042;28;20421;-56
2022/02/27 04:14:14;;;;;;;18.23;11.63;;;;;;;;;;5075219;28;20029;-57
2022/02/27 04:16:40;;;;;;;15.27;11.00;;;;;;;;;;5074892;28;20538;-58
2022/02/27 04:19:07;;;;;;;16.25;11.75;;;;;;;;;;5075015;28;20035;-58
2022/02/27 04:21:36;;;;;;;15.82;12.30;;;;;;;;;;5075276;28;20016;-56
2022/02/27 04:24:02;;;;;;;14.80;12.23;;;;;;;;;;5075195;28;20103;-57
2022/02/27 04:26:29;;;;;;;15.75;10.85;;;;;;;;;;5074908;28;20025;-56
2022/02/27 04:28:55;;;;;;;14.50;10.40;;;;;;;;;;5074874;28;20040;-58
2022/02/27 04:31:21;;;;;;;15.27;10.70;;;;;;;;;;5075031;28;20534;-57
2022/02/27 04:33:47;;;;;;;15.15;11.07;;;;;;;;;;5074831;28;20029;-56
2022/02/27 04:36:16;;;;;;;15.57;11.02;;;;;;;;;;5074684;28;20079;-57
2022/02/27 04:38:42;;;;;;;15.57;11.38;;;;;;;;;;5074806;28;20033;-56
2022/02/27 04:41:08;;;;;;;14.70;10.38;;;;;;;;;;5074560;28;20020;-57
2022/02/27 04:43:34;;;;;;;15.27;10.75;;;;;;;;;;5056773;28;20028;-57
2022/02/27 04:46:00;;;;;;;14.25;10.00;;;;;;;;;;5074859;28;20461;-46
2022/02/27 04:48:26;;;;;;;15.10;9.85;;;;;;;;;;5074489;28;20120;-57
2022/02/27 04:50:55;;;;;;;16.05;11.18;;;;;;;;;;5074498;28;20472;-57
2022/02/27 04:53:21;;;;;;;16.52;10.85;;;;;;;;;;5074173;28;20020;-56
2022/02/27 04:55:50;;;;;;;23.95;15.88;;;;;;;;;;5074144;28;20029;-56
2022/02/27 04:58:16;;;;;;;14.00;11.02;;;;;;;;;;5074493;28;20020;-56
2022/02/27 05:00:42;;;;;;;17.83;11.85;;;;;;;;;;5073956;28;20105;-54
2022/02/27 05:03:08;;;;;;;18.95;12.13;;;;;;;;;;5074264;28;20503;-50
2022/02/27 05:05:34;;;;;;;19.20;13.48;;;;;;;;;;5056561;28;20388;-57
2022/02/27 05:08:00;;;;;;;21.08;13.00;;;;;;;;;;5074126;28;20029;-57
2022/02/27 05:10:26;;;;;;;17.67;10.93;;;;;;;;;;5073928;28;20037;-57
2022/02/27 05:12:52;;;;;;;17.33;12.48;;;;;;;;;;5074009;28;20031;-55
2022/02/27 05:15:21;;;;;;;16.70;11.07;;;;;;;;;;5074086;28;20028;-57
2022/02/27 05:17:47;;;;;;;15.48;9.75;;;;;;;;;;5074028;28;20515;-58
2022/02/27 05:20:15;;;;;;;17.15;11.43;;;;;;;;;;5074179;28;20056;-58
2022/02/27 05:22:43;;;;;;;13.45;10.32;;;;;;;;;;5073947;28;20024;-48
2022/02/27 05:25:11;;;;;;;18.92;11.27;;;;;;;;;;5073857;28;20526;-57
2022/02/27 05:27:37;;;;;;;13.30;9.88;;;;;;;;;;5073864;28;20112;-58
2022/02/27 05:30:05;;;;;;;14.30;10.80;;;;;;;;;;5073587;28;20036;-57
2022/02/27 05:32:31;;;;;;;15.50;9.52;;;;;;;;;;5073839;28;20048;-54
2022/02/27 05:34:57;;;;;;;17.63;10.82;;;;;;;;;;5073646;28;20025;-56
2022/02/27 05:37:23;;;;;;;13.68;9.90;;;;;;;;;;5073512;28;20165;-52
2022/02/27 05:39:53;;;;;;;14.00;9.52;;;;;;;;;;5073588;28;20052;-55
2022/02/27 05:42:19;;;;;;;14.63;9.60;;;;;;;;;;5073387;28;20029;-55
2022/02/27 05:44:45;;;;;;;15.50;9.30;;;;;;;;;;5073546;28;20025;-56
2022/02/27 05:47:11;;;;;;;14.82;10.02;;;;;;;;;;5073226;28;20017;-56
2022/02/27 05:49:37;;;;;;;11.57;9.07;;;;;;;;;;5073339;28;20391;-56
2022/02/27 05:52:03;;;;;;;14.40;9.13;;;;;;;;;;5073564;28;20017;-57
2022/02/27 05:54:29;;;;;;;17.27;11.15;;;;;;;;;;5073365;28;20024;-58
2022/02/27 05:56:56;;;;;;;15.35;9.80;;;;;;;;;;5073742;28;20518;-57
2022/02/27 05:59:22;;;;;;;12.80;9.48;;;;;;;;;;5073441;28;20033;-57
2022/02/27 06:01:51;;;;;;;13.27;9.20;;;;;;;;;;5072924;28;20071;-57
2022/02/27 06:04:17;;;;;;;15.40;9.32;;;;;;;;;;5072914;28;20029;-54
2022/02/27 06:06:43;;;;;;;14.35;10.30;;;;;;;;;;5073014;28;20019;-55
2022/02/27 06:09:10;;;;;;;17.08;11.18;;;;;;;;;;5073085;28;20123;-56
2022/02/27 06:11:37;;;;;;;14.88;10.45;;;;;;;;;;5073151;28;20023;-56
2022/02/27 06:14:03;;;;;;;16.95;10.65;;;;;;;;;;5073093;28;20028;-56
2022/02/27 06:16:42;;;;;;;17.63;10.00;;;;;;;;;;5073376;28;20017;-58
2022/02/27 06:19:08;;;;;;;14.77;10.70;;;;;;;;;;5073038;28;20049;-52
2022/02/27 06:21:34;;;;;;;11.63;9.05;;;;;;;;;;5072970;28;20514;-55
2022/02/27 06:24:00;;;;;;;15.93;10.07;;;;;;;;;;5072867;28;20025;-53
2022/02/27 06:26:30;;;;;;;13.93;9.45;;;;;;;;;;5073182;28;20071;-57
2022/02/27 06:28:58;;;;;;;13.00;9.95;;;;;;;;;;5073127;28;20041;-61
2022/02/27 06:31:24;;;;;;;18.00;10.50;;;;;;;;;;5072800;28;20508;-56
2022/02/27 06:33:50;;;;;;;21.25;10.57;;;;;;;;;;5072786;28;20036;-55
2022/02/27 06:36:17;;;;;;;16.77;11.57;;;;;;;;;;5072989;28;20064;-54
2022/02/27 06:38:43;;;;;;;19.23;11.35;;;;;;;;;;5072830;28;20119;-58
2022/02/27 06:41:12;;;;;;;16.70;10.85;;;;;;;;;;5072834;28;20453;-56
2022/02/27 06:43:38;;;;;;;17.90;11.23;;;;;;;;;;5072918;28;20052;-54
2022/02/27 06:46:06;;;;;;;15.63;10.05;;;;;;;;;;5072875;28;20032;-58
2022/02/27 06:48:33;;;;;;;15.40;10.20;;;;;;;;;;5072511;28;20507;-55
2022/02/27 06:50:59;;;;;;;17.10;11.25;;;;;;;;;;5072745;28;20457;-55
2022/02/27 06:53:25;;;;;;;17.77;11.00;;;;;;;;;;5072668;28;20029;-57
2022/02/27 06:55:51;;;;;;;16.67;11.32;;;;;;;;;;5072703;28;20522;-59
2022/02/27 06:58:18;;;;;;;19.80;13.68;;;;;;;;;;5072784;28;20469;-57
2022/02/27 07:00:44;;;;;;;26.70;16.52;;;;;;;;;;5072362;28;20508;-57
2022/02/27 07:03:10;;;;;;;30.85;16.75;;;;;;;;;;5072654;28;20469;-56
2022/02/27 07:05:37;;;;;;;44.55;21.98;;;;;;;;;;5072688;28;20035;-57
2022/02/27 07:08:03;;;;;;;37.97;19.35;;;;;;;;;;5072787;28;20033;-58
2022/02/27 07:10:29;;;;;;;28.75;16.63;;;;;;;;;;5072547;28;20017;-57
2022/02/27 07:12:55;;;;;;;36.22;17.77;;;;;;;;;;5072820;28;20051;-57
2022/02/27 07:15:24;;;;;;;45.83;21.30;;;;;;;;;;5072679;28;20020;-54
2022/02/27 07:17:50;;;;;;;51.70;21.83;;;;;;;;;;5075970;28;20415;-56
2022/02/27 07:20:16;;;;;;;33.63;16.67;;;;;;;;;;5076339;28;20029;-57
2022/02/27 07:22:42;;;;;;;39.00;17.85;;;;;;;;;;5076407;28;20032;-54
2022/02/27 07:25:08;;;;;;;46.45;21.65;;;;;;;;;;5075564;28;20028;-49
2022/02/27 07:27:37;;;;;;;53.30;22.23;;;;;;;;;;5075416;28;20518;-57
2022/02/27 07:30:04;;;;;;;45.03;21.08;;;;;;;;;;5073428;28;20043;-59
2022/02/27 07:32:31;;;;;;;40.95;19.77;;;;;;;;;;5075411;28;20052;-58
2022/02/27 07:34:58;;;;;;;38.80;18.65;;;;;;;;;;5075449;28;20070;-55
2022/02/27 07:37:25;;;;;;;49.63;21.10;;;;;;;;;;5075359;28;20111;-59
2022/02/27 07:39:55;;;;;;;32.63;16.13;;;;;;;;;;5075378;28;20021;-50
2022/02/27 07:42:21;;;;;;;27.35;14.55;;;;;;;;;;5075227;28;20028;-54
2022/02/27 07:44:48;;;;;;;21.60;12.30;;;;;;;;;;5075190;28;20032;-59
2022/02/27 07:47:18;;;;;;;26.98;13.35;;;;;;;;;;5075303;28;20021;-58
2022/02/27 07:49:44;;;;;;;27.15;15.10;;;;;;;;;;5074988;28;20036;-53
2022/02/27 07:52:13;;;;;;;26.85;15.38;;;;;;;;;;5075105;28;20021;-59
2022/02/27 07:54:39;;;;;;;22.98;13.48;;;;;;;;;;5075038;28;20112;-59
2022/02/27 07:57:05;;;;;;;23.90;13.98;;;;;;;;;;5075015;28;20495;-49
2022/02/27 07:59:31;;;;;;;28.98;17.45;;;;;;;;;;5075065;28;20020;-53
2022/02/27 08:01:57;;;;;;;24.67;14.57;;;;;;;;;;5074670;28;20068;-55
2022/02/27 08:04:24;;;;;;;28.95;16.92;;;;;;;;;;5075177;28;20099;-55
2022/02/27 08:06:50;;;;;;;30.17;15.80;;;;;;;;;;5075471;28;20024;-57
2022/02/27 08:09:16;;;;;;;23.58;14.88;;;;;;;;;;5074860;28;20037;-59
2022/02/27 08:11:42;;;;;;;28.98;17.38;;;;;;;;;;5074839;28;20017;-48
2022/02/27 08:14:08;;;;;;;24.45;16.52;;;;;;;;;;5074905;28;20020;-60
2022/02/27 08:16:34;;;;;;;17.02;12.65;;;;;;;;;;5074818;28;20421;-58
2022/02/27 08:19:01;;;;;;;23.58;14.73;;;;;;;;;;5074633;28;20085;-57
2022/02/27 08:21:27;;;;;;;20.98;14.30;;;;;;;;;;5074703;28;20017;-60
2022/02/27 08:23:53;;;;;;;20.83;14.25;;;;;;;;;;5074640;28;20088;-57
2022/02/27 08:26:19;;;;;;;20.83;13.73;;;;;;;;;;5074447;28;20021;-59
2022/02/27 08:28:45;;;;;;;21.65;13.82;;;;;;;;;;5073698;28;20040;-58
2022/02/27 08:31:11;;;;;;;17.83;11.88;;;;;;;;;;5074246;28;20021;-58
2022/02/27 08:33:38;;;;;;;15.82;10.05;;;;;;;;;;5074274;28;20024;-57
2022/02/27 08:36:04;;;;;;;16.85;11.18;;;;;;;;;;5074241;28;20016;-51
2022/02/27 08:38:31;;;;;;;21.10;11.43;;;;;;;;;;5074094;28;20017;-55
2022/02/27 08:40:57;;;;;;;20.67;11.00;;;;;;;;;;5074257;28;20024;-56
2022/02/27 08:43:23;;;;;;;24.95;14.82;;;;;;;;;;5074351;28;20020;-54
2022/02/27 08:45:49;;;;;;;19.95;13.07;;;;;;;;;;5074163;28;20107;-58
2022/02/27 08:48:15;;;;;;;24.88;13.90;;;;;;;;;;5073725;28;20086;-58
2022/02/27 08:50:41;;;;;;;21.55;13.45;;;;;;;;;;5074016;28;20016;-57
2022/02/27 08:53:08;;;;;;;20.80;13.88;;;;;;;;;;5073989;28;20024;-57
2022/02/27 08:55:34;;;;;;;18.73;12.13;;;;;;;;;;5073780;28;20581;-56
2022/02/27 08:58:02;;;;;;;29.48;17.67;;;;;;;;;;5055842;28;20435;-58
2022/02/27 09:00:29;;;;;;;75.20;41.35;;;;;;;;;;5073476;28;20037;-58
2022/02/27 09:02:59;;;;;;;18.30;12.35;;;;;;;;;;5072575;28;20024;-50
2022/02/27 09:05:25;;;;;;;55.85;33.65;;;;;;;;;;5074306;28;20396;-51
2022/02/27 09:07:51;;;;;;;48.53;30.08;;;;;;;;;;5074227;28;20028;-56
2022/02/27 09:10:17;;;;;;;46.80;27.65;;;;;;;;;;5073995;28;20480;-51
2022/02/27 09:12:44;;;;;;;21.92;13.00;;;;;;;;;;5074127;28;20028;-52
2022/02/27 09:15:11;;;;;;;59.13;33.55;;;;;;;;;;5074131;28;20024;-47
2022/02/27 09:17:37;;;;;;;38.22;24.25;;;;;;;;;;5074038;28;20013;-54
2022/02/27 09:20:04;;;;;;;66.88;40.42;;;;;;;;;;5073687;28;20035;-52
2022/02/27 09:22:30;;;;;;;67.85;40.05;;;;;;;;;;5074287;28;20032;-49
2022/02/27 09:24:56;;;;;;;56.72;28.17;;;;;;;;;;5073718;28;20468;-53
2022/02/27 09:27:23;;;;;;;47.53;24.70;;;;;;;;;;5074054;28;20024;-51
2022/02/27 09:29:49;;;;;;;53.28;30.70;;;;;;;;;;5073339;28;20064;-54
2022/02/27 09:32:15;;;;;;;40.90;24.60;;;;;;;;;;5073418;28;20040;-53
2022/02/27 09:34:41;;;;;;;37.85;20.85;;;;;;;;;;5073698;28;20028;-57
2022/02/27 09:37:07;;;;;;;28.77;15.95;;;;;;;;;;5073255;28;20031;-53
2022/02/27 09:39:33;;;;;;;21.08;12.02;;;;;;;;;;5071641;28;20027;-52
2022/02/27 09:41:59;;;;;;;22.83;10.70;;;;;;;;;;5073601;28;20094;-54
2022/02/27 09:44:27;;;;;;;19.27;11.32;;;;;;;;;;5073692;28;20388;-53
2022/02/27 09:46:53;;;;;;;28.55;17.63;;;;;;;;;;5073536;28;20479;-54
2022/02/27 09:49:22;;;;;;;27.90;14.57;;;;;;;;;;5073466;28;20066;-53
2022/02/27 09:51:48;;;;;;;34.67;19.95;;;;;;;;;;5073524;28;20021;-53
2022/02/27 09:54:14;;;;;;;43.63;22.67;;;;;;;;;;5073466;28;20028;-54
2022/02/27 09:56:44;;;;;;;25.50;13.70;;;;;;;;;;5073429;28;20028;-52
2022/02/27 09:59:10;;;;;;;19.80;11.60;;;;;;;;;;5073432;28;20112;-53
2022/02/27 10:01:40;;;;;;;19.38;11.95;;;;;;;;;;5072236;28;20053;-53
2022/02/27 10:04:25;;;;;;;20.00;12.57;;;;;;;;;;5073354;28;20029;-55
2022/02/27 10:06:51;;;;;;;24.75;13.32;;;;;;;;;;5054956;28;20039;-52
2022/02/27 10:09:24;;;;;;;26.80;15.02;;;;;;;;;;5073266;28;20044;-58
2022/02/27 10:11:51;;;;;;;25.80;15.38;;;;;;;;;;5073291;28;20082;-55
2022/02/27 10:14:29;;;;;;;27.73;14.40;;;;;;;;;;5073414;28;20464;-52
2022/02/27 10:17:02;;;;;;;21.65;12.43;;;;;;;;;;5073215;28;20082;-53
2022/02/27 10:19:28;;;;;;;24.08;13.80;;;;;;;;;;5072955;28;20048;-52
2022/02/27 10:21:54;;;;;;;24.13;14.55;;;;;;;;;;5073304;28;20353;-54
2022/02/27 10:24:20;;;;;;;24.80;14.45;;;;;;;;;;5073154;28;20046;-53
2022/02/27 10:26:47;;;;;;;22.52;14.50;;;;;;;;;;5073068;28;20027;-53
2022/02/27 10:29:18;;;;;;;18.95;12.27;;;;;;;;;;5073020;28;20389;-57
2022/02/27 10:31:48;;;;;;;23.63;14.85;;;;;;;;;;5073013;28;20528;-54
2022/02/27 10:34:18;;;;;;;26.63;14.82;;;;;;;;;;5073059;28;20166;-54
2022/02/27 10:37:00;;;;;;;27.38;15.20;;;;;;;;;;5073033;28;20107;-54
2022/02/27 10:39:34;;;;;;;21.95;13.52;;;;;;;;;;5073089;28;20052;-51
2022/02/27 10:42:18;;;;;;;19.38;11.65;;;;;;;;;;5072972;28;20100;-51
2022/02/27 10:44:51;;;;;;;18.42;12.20;;;;;;;;;;5073007;28;20024;-54
2022/02/27 10:47:18;;;;;;;20.13;12.48;;;;;;;;;;5072836;28;20028;-54
2022/02/27 10:49:45;;;;;;;22.08;13.40;;;;;;;;;;5072734;28;20128;-54
2022/02/27 10:52:11;;;;;;;25.55;14.27;;;;;;;;;;5075091;28;20019;-52
2022/02/27 10:54:41;;;;;;;24.00;13.38;;;;;;;;;;5075720;28;20028;-54
2022/02/27 10:57:10;;;;;;;30.65;17.15;;;;;;;;;;5073318;28;20508;-52
2022/02/27 10:59:39;;;;;;;35.13;21.70;;;;;;;;;;5075651;28;20113;-54
2022/02/27 11:02:05;;;;;;;49.17;30.27;;;;;;;;;;5075876;28;20060;-54
2022/02/27 11:04:32;;;;;;;28.25;18.05;;;;;;;;;;5075869;28;20024;-54
2022/02/27 11:06:59;;;;;;;25.88;16.30;;;;;;;;;;5076592;28;20016;-56
2022/02/27 11:09:25;;;;;;;24.95;13.38;;;;;;;;;;5076431;28;20036;-54
2022/02/27 11:11:51;;;;;;;23.40;13.40;;;;;;;;;;5076200;28;20021;-54
2022/02/27 11:14:18;;;;;;;21.40;12.57;;;;;;;;;;5076415;28;20036;-54
2022/02/27 11:16:44;;;;;;;16.63;10.77;;;;;;;;;;5076334;28;20027;-53
2022/02/27 11:19:10;;;;;;;18.10;12.20;;;;;;;;;;5075657;28;20103;-52
2022/02/27 11:21:36;;;;;;;18.10;10.00;;;;;;;;;;5075416;28;20096;-55
2022/02/27 11:24:02;;;;;;;18.35;10.77;;;;;;;;;;5075767;28;20037;-52
2022/02/27 11:26:29;;;;;;;17.73;11.25;;;;;;;;;;5075609;28;20036;-53
2022/02/27 11:28:57;;;;;;;18.52;11.25;;;;;;;;;;5075304;28;20373;-53
2022/02/27 11:31:26;;;;;;;22.00;12.75;;;;;;;;;;5075440;28;20023;-53
2022/02/27 11:34:11;;;;;;;17.15;11.82;;;;;;;;;;5075826;28;20482;-53
2022/02/27 11:36:40;;;;;;;21.67;14.85;;;;;;;;;;5075145;28;20017;-53
2022/02/27 11:40:28;;;;;;;21.08;13.70;;;;;;;;;;5075397;28;20085;-55
2022/02/27 11:41:53;;;;;;;24.33;16.08;;;;;;;;;;5072436;28;20185;-53
2022/02/27 11:44:19;;;;;;;29.63;18.70;;;;;;;;;;5075746;28;20020;-45
2022/02/27 11:46:46;;;;;;;50.42;27.42;;;;;;;;;;5075786;28;20021;-52
2022/02/27 11:49:15;;;;;;;48.83;30.23;;;;;;;;;;5075561;28;20040;-44
2022/02/27 11:51:42;;;;;;;36.83;23.20;;;;;;;;;;5075728;28;20033;-44
2022/02/27 11:54:08;;;;;;;115.88;69.95;;;;;;;;;;5074541;28;20489;-49
2022/02/27 11:56:37;;;;;;;85.75;54.53;;;;;;;;;;5075705;28;20021;-47
2022/02/27 11:59:03;;;;;;;78.05;48.13;;;;;;;;;;5072916;28;20052;-49
2022/02/27 12:01:49;;;;;;;20.02;12.07;;;;;;;;;;5046677;28;20222;-46
2022/02/27 12:04:21;;;;;;;17.17;10.70;;;;;;;;;;5041678;28;20025;-54
2022/02/27 12:06:56;;;;;;;21.02;13.65;;;;;;;;;;5043448;28;20094;-46
2022/02/27 12:09:23;;;;;;;15.05;10.23;;;;;;;;;;5043142;28;20116;-46
2022/02/27 12:11:49;;;;;;;17.10;10.32;;;;;;;;;;5044519;28;20021;-52
2022/02/27 12:14:15;;;;;;;13.65;8.35;;;;;;;;;;5043242;28;20714;-47
2022/02/27 12:16:45;;;;;;;14.05;9.85;;;;;;;;;;5043438;28;20032;-49
2022/02/27 12:19:24;;;;;;;143.13;69.15;;;;;;;;;;5042620;28;20025;-49
2022/02/27 12:21:52;;;;;;;24.67;15.75;;;;;;;;;;5044334;28;20449;-53
2022/02/27 12:24:32;;;;;;;17.08;11.65;;;;;;;;;;5042933;28;20037;-51
2022/02/27 12:27:01;;;;;;;19.23;11.65;;;;;;;;;;5042801;28;20027;-50
2022/02/27 12:29:28;;;;;;;21.25;13.10;;;;;;;;;;5042583;28;20441;-49
2022/02/27 12:31:54;;;;;;;16.85;10.10;;;;;;;;;;5042794;28;20045;-50
2022/02/27 12:34:21;;;;;;;15.02;10.27;;;;;;;;;;5043012;28;20028;-51
2022/02/27 12:36:52;;;;;;;23.35;13.07;;;;;;;;;;5042962;28;20025;-49
2022/02/27 12:39:20;;;;;;;20.02;11.65;;;;;;;;;;5043009;28;20520;-50
2022/02/27 12:41:51;;;;;;;19.42;13.13;;;;;;;;;;5045093;28;20103;-57
2022/02/27 12:44:38;;;;;;;32.05;15.60;;;;;;;;;;5042914;28;20029;-50
2022/02/27 12:47:05;;;;;;;30.35;16.20;;;;;;;;;;5043595;28;20029;-52
2022/02/27 12:52:27;;;;;;;17.05;11.40;;;;;;;;;;5042431;28;20055;-51
2022/02/27 12:54:54;;;;;;;18.90;11.20;;;;;;;;;;5042398;28;20044;-51
2022/02/27 12:57:20;;;;;;;20.05;11.85;;;;;;;;;;5042368;28;20021;-46
2022/02/27 12:59:47;;;;;;;25.23;12.75;;;;;;;;;;5043666;28;20025;-51
2022/02/27 13:02:20;;;;;;;20.75;11.13;;;;;;;;;;5041934;28;20037;-47
2022/02/27 13:04:47;;;;;;;23.85;13.15;;;;;;;;;;5042425;28;20031;-52
2022/02/27 13:07:18;;;;;;;25.35;11.90;;;;;;;;;;5042569;28;20028;-54
2022/02/27 13:09:45;;;;;;;21.65;11.75;;;;;;;;;;5042860;28;20037;-50
2022/02/27 13:12:15;;;;;;;22.05;13.98;;;;;;;;;;5042230;28;20027;-53
2022/02/27 13:14:44;;;;;;;23.00;11.82;;;;;;;;;;5042141;28;20028;-54
2022/02/27 13:17:11;;;;;;;14.90;9.68;;;;;;;;;;5042051;28;20456;-51
2022/02/27 13:19:38;;;;;;;24.45;13.93;;;;;;;;;;5042015;28;20029;-52
2022/02/27 13:22:05;;;;;;;21.30;13.80;;;;;;;;;;5041683;28;20021;-49
2022/02/27 13:24:39;;;;;;;18.77;12.93;;;;;;;;;;5042250;28;20337;-53
2022/02/27 13:27:08;;;;;;;17.55;10.95;;;;;;;;;;5041981;28;20763;-49
2022/02/27 13:29:46;;;;;;;17.70;10.98;;;;;;;;;;5042747;28;20036;-49
2022/02/27 13:32:19;;;;;;;16.83;10.00;;;;;;;;;;5041888;28;20044;-50
2022/02/27 13:34:46;;;;;;;21.17;12.50;;;;;;;;;;5041395;28;20025;-53
2022/02/27 13:37:12;;;;;;;20.90;13.48;;;;;;;;;;5041954;28;20473;-51
2022/02/27 13:39:38;;;;;;;28.05;16.83;;;;;;;;;;5041377;28;20028;-50
2022/02/27 13:42:05;;;;;;;25.13;13.68;;;;;;;;;;5042601;28;20762;-50
2022/02/27 13:44:31;;;;;;;16.05;9.45;;;;;;;;;;5041769;28;20033;-52
2022/02/27 13:46:57;;;;;;;14.50;9.60;;;;;;;;;;5041168;28;20825;-50
2022/02/27 13:49:24;;;;;;;15.10;11.00;;;;;;;;;;5041227;28;20043;-51
2022/02/27 13:51:51;;;;;;;14.52;9.85;;;;;;;;;;5041521;28;20347;-49
2022/02/27 13:54:28;;;;;;;13.55;9.60;;;;;;;;;;5041819;28;20024;-48
2022/02/27 13:57:03;;;;;;;13.77;9.88;;;;;;;;;;5041180;28;20056;-50
2022/02/27 13:59:45;;;;;;;24.25;10.90;;;;;;;;;;5041364;28;20029;-52
2022/02/27 14:02:12;;;;;;;15.90;9.90;;;;;;;;;;5001496;28;20444;-48
2022/02/27 14:04:38;;;;;;;17.20;9.77;;;;;;;;;;5001374;28;20083;-49
2022/02/27 14:07:16;;;;;;;15.43;10.27;;;;;;;;;;5001837;28;20033;-50
2022/02/27 14:09:52;;;;;;;15.55;9.20;;;;;;;;;;5010948;28;20134;-48
2022/02/27 14:12:18;;;;;;;15.65;11.10;;;;;;;;;;5001209;28;20052;-50
2022/02/27 14:14:51;;;;;;;20.45;12.23;;;;;;;;;;5002668;28;20462;-53
2022/02/27 14:17:22;;;;;;;22.48;11.30;;;;;;;;;;5002895;28;20053;-49
2022/02/27 14:19:49;;;;;;;16.60;10.25;;;;;;;;;;5001843;28;20783;-50
2022/02/27 14:22:15;;;;;;;15.38;10.55;;;;;;;;;;5001556;28;20045;-45